Beaminster, United Kingdom
Current Conditions -  °F | °C
As of 3:50 PM on Wednesday 26 Nov 2014 (Local Time) from EGDY Reporting Station
Haze Haze  
Wind Chill: 44°   Ceiling: 600
Heat Index: 46°   Visibility: 3mi
Dew Point: 45°   Wind: 5mph
Humidity: 93%   Direction: 300°WNW
Pressure: 29.83"   Gusts: NA
Location:  50.81°N, 2.74°W
Report Text: EGDY 261550Z AUTO 30004KT 5000 BR OVC006/// 08/07 Q1010
Loading
Personal Weather Stations






























Interactive Weather Map New forecast layout! Learn more

10-Day Weather Forecast

Advertisements
Track Severe Weather on mobile